Time;durP1;ratioP1;P1;durP2;ratioP2;P2;SDS_P1;SDS_P2;PMS_P1;PMS_P2;Temp;Humidity;BMP_temperature;BMP_pressure;BME280_temperature;BME280_humidity;BME280_pressure;Samples;Min_cycle;Max_cycle;Signal;HPM_P1;HPM_P2
2023/08/28 00:00:31;;;;;;;5.50;2.20;;;13.00;99.90;;;;;;5076923;28;20048;-68
2023/08/28 00:02:58;;;;;;;5.07;2.10;;;13.00;99.90;;;;;;5075940;28;20063;-70
2023/08/28 00:05:25;;;;;;;4.28;2.53;;;13.00;99.90;;;;;;5092854;28;20044;-69
2023/08/28 00:07:52;;;;;;;4.82;2.22;;;13.00;99.90;;;;;;5093182;28;20059;-68
2023/08/28 00:10:20;;;;;;;6.30;2.17;;;13.10;99.90;;;;;;5093303;28;20052;-68
2023/08/28 00:12:47;;;;;;;3.65;2.42;;;13.10;99.90;;;;;;5093901;28;20134;-68
2023/08/28 00:15:14;;;;;;;4.35;2.60;;;13.10;99.90;;;;;;5079599;28;20419;-67
2023/08/28 00:17:42;;;;;;;7.28;2.83;;;13.10;99.90;;;;;;5080682;28;20048;-67
2023/08/28 00:20:09;;;;;;;4.80;2.30;;;13.10;99.90;;;;;;5096766;27;20048;-68
2023/08/28 00:22:36;;;;;;;5.72;2.30;;;13.10;99.90;;;;;;5080353;28;20043;-68
2023/08/28 00:25:07;;;;;;;4.90;2.30;;;13.20;99.90;;;;;;5110657;28;20036;-68
2023/08/28 00:27:35;;;;;;;4.10;2.42;;;13.20;99.90;;;;;;5097308;27;20062;-68
2023/08/28 00:30:03;;;;;;;4.30;2.10;;;13.20;99.90;;;;;;5096846;27;20059;-68
2023/08/28 00:32:30;;;;;;;4.97;2.25;;;13.20;99.90;;;;;;5113369;28;20559;-68
2023/08/28 00:34:57;;;;;;;4.13;2.17;;;13.10;99.90;;;;;;5097367;27;20528;-68
2023/08/28 00:37:24;;;;;;;5.10;2.63;;;13.10;99.90;;;;;;5097101;27;20048;-68
2023/08/28 00:39:51;;;;;;;5.07;2.17;;;13.00;99.90;;;;;;5096289;27;20051;-68
2023/08/28 00:42:18;;;;;;;4.57;1.95;;;13.00;99.90;;;;;;5080013;28;20056;-68
2023/08/28 00:44:46;;;;;;;5.15;2.00;;;12.90;99.90;;;;;;5078617;28;20044;-68
2023/08/28 00:47:13;;;;;;;4.05;1.92;;;12.90;99.90;;;;;;5096122;27;20101;-68
2023/08/28 00:49:40;;;;;;;3.60;2.45;;;12.80;99.90;;;;;;5096862;27;20044;-68
2023/08/28 00:52:08;;;;;;;4.55;2.03;;;12.80;99.90;;;;;;5096324;28;20043;-68
2023/08/28 00:54:35;;;;;;;5.18;1.90;;;12.70;99.90;;;;;;5095975;28;20052;-67
2023/08/28 00:57:03;;;;;;;5.90;1.95;;;12.70;99.90;;;;;;5096298;27;20051;-67
2023/08/28 00:59:31;;;;;;;4.78;1.98;;;12.70;99.90;;;;;;5079262;28;20062;-68
2023/08/28 01:01:59;;;;;;;4.93;2.45;;;12.60;99.90;;;;;;5094686;28;20059;-68
2023/08/28 01:04:26;;;;;;;3.95;2.00;;;12.60;99.90;;;;;;5097413;28;20043;-67
2023/08/28 01:06:58;;;;;;;4.38;2.15;;;12.60;99.90;;;;;;5079419;28;20091;-68
2023/08/28 01:09:36;;;;;;;4.82;2.00;;;12.50;99.90;;;;;;5096771;28;20709;-67
2023/08/28 01:12:08;;;;;;;9.10;2.38;;;12.50;99.90;;;;;;5114240;28;20051;-67
2023/08/28 01:14:44;;;;;;;6.60;2.05;;;12.50;99.90;;;;;;5096744;28;20058;-67
2023/08/28 01:17:14;;;;;;;5.43;2.10;;;12.50;99.90;;;;;;5097204;28;20055;-68
2023/08/28 01:19:44;;;;;;;5.78;2.20;;;12.50;99.90;;;;;;5095008;28;20043;-68
2023/08/28 01:22:17;;;;;;;4.95;2.28;;;12.60;99.90;;;;;;5095639;27;20043;-67
2023/08/28 01:24:49;;;;;;;5.68;2.15;;;12.60;99.90;;;;;;5095937;27;20052;-68
2023/08/28 01:27:19;;;;;;;4.18;2.22;;;12.60;99.90;;;;;;5079079;27;20051;-68
2023/08/28 01:29:46;;;;;;;4.70;2.23;;;12.60;99.90;;;;;;5113153;28;20043;-67
2023/08/28 01:32:13;;;;;;;5.43;2.05;;;12.60;99.90;;;;;;5078273;28;20286;-68
2023/08/28 01:34:41;;;;;;;6.03;2.25;;;12.60;99.90;;;;;;5095615;27;20047;-67
2023/08/28 01:37:15;;;;;;;11.52;2.95;;;12.50;99.90;;;;;;5095811;28;20051;-68
2023/08/28 01:39:45;;;;;;;5.25;1.95;;;12.50;99.90;;;;;;5077847;28;20054;-68
2023/08/28 01:42:13;;;;;;;4.30;2.03;;;12.50;99.90;;;;;;5095697;27;20058;-68
2023/08/28 01:44:42;;;;;;;2.83;1.83;;;12.50;99.90;;;;;;5078446;28;20044;-68
2023/08/28 01:47:09;;;;;;;6.15;2.22;;;12.50;99.90;;;;;;5079428;28;20040;-67
2023/08/28 01:49:36;;;;;;;3.28;1.88;;;12.50;99.90;;;;;;5094769;27;20059;-67
2023/08/28 01:52:03;;;;;;;4.88;2.20;;;12.40;99.90;;;;;;5095219;27;20063;-68
2023/08/28 01:54:30;;;;;;;6.15;2.22;;;12.40;99.90;;;;;;5077623;28;20412;-68
2023/08/28 01:56:57;;;;;;;4.28;2.00;;;12.40;99.90;;;;;;5094441;27;20052;-67
2023/08/28 01:59:24;;;;;;;3.88;2.00;;;12.40;99.90;;;;;;5095526;27;20052;-67
2023/08/28 02:01:52;;;;;;;5.90;2.28;;;12.30;99.90;;;;;;5095049;27;20043;-67
2023/08/28 02:04:19;;;;;;;3.55;2.25;;;12.30;99.90;;;;;;5113346;28;20044;-67
2023/08/28 02:06:46;;;;;;;4.95;2.55;;;12.30;99.90;;;;;;5096161;28;20052;-67
2023/08/28 02:09:13;;;;;;;3.65;2.20;;;12.20;99.90;;;;;;5096872;27;20044;-67
2023/08/28 02:11:40;;;;;;;4.70;2.70;;;12.20;99.90;;;;;;5076400;27;20044;-67
2023/08/28 02:14:07;;;;;;;8.27;2.88;;;12.20;99.90;;;;;;5078099;28;20117;-68
2023/08/28 02:16:38;;;;;;;3.20;2.22;;;12.20;99.90;;;;;;5094706;28;20492;-68
2023/08/28 02:19:06;;;;;;;3.85;2.75;;;12.20;99.90;;;;;;5076962;28;20105;-68
2023/08/28 02:21:34;;;;;;;5.75;2.58;;;12.10;99.90;;;;;;5094661;27;20047;-68
2023/08/28 02:24:01;;;;;;;10.00;3.08;;;12.20;99.90;;;;;;5093595;28;20571;-68
2023/08/28 02:26:28;;;;;;;4.65;2.90;;;12.20;99.90;;;;;;5095239;27;20055;-68
2023/08/28 02:28:55;;;;;;;4.18;2.40;;;12.20;99.90;;;;;;5094875;27;20040;-67
2023/08/28 02:31:22;;;;;;;3.35;2.70;;;12.20;99.90;;;;;;5077149;28;20899;-67
2023/08/28 02:33:49;;;;;;;5.28;2.65;;;12.20;99.90;;;;;;5094106;27;20044;-68
2023/08/28 02:36:17;;;;;;;6.20;2.75;;;12.20;99.90;;;;;;5093939;28;20044;-67
2023/08/28 02:38:44;;;;;;;3.97;2.40;;;12.20;99.90;;;;;;5076968;27;20048;-67
2023/08/28 02:41:11;;;;;;;4.40;2.42;;;12.10;99.90;;;;;;5078289;28;20051;-68
2023/08/28 02:43:38;;;;;;;6.78;2.60;;;12.10;99.90;;;;;;5094312;27;20055;-68
2023/08/28 02:46:05;;;;;;;6.05;2.58;;;12.20;99.90;;;;;;5077256;27;20073;-68
2023/08/28 02:48:32;;;;;;;5.50;2.75;;;12.20;99.90;;;;;;5096691;28;20044;-67
2023/08/28 02:50:59;;;;;;;3.42;2.13;;;12.20;99.90;;;;;;5094566;27;20097;-68
2023/08/28 02:53:27;;;;;;;5.05;2.42;;;12.20;99.90;;;;;;5077484;28;20048;-67
2023/08/28 02:56:23;;;;;;;3.53;2.55;;;12.20;99.90;;;;;;5094088;27;20046;-67
2023/08/28 02:58:50;;;;;;;7.20;2.72;;;12.20;99.90;;;;;;5092932;28;20107;-67
2023/08/28 03:01:18;;;;;;;3.05;2.10;;;12.20;99.90;;;;;;5093945;27;20515;-67
2023/08/28 03:03:46;;;;;;;3.30;2.30;;;12.20;99.90;;;;;;5094233;27;20046;-66
2023/08/28 03:06:13;;;;;;;6.68;2.70;;;12.10;99.90;;;;;;5093067;28;20043;-67
2023/08/28 03:08:42;;;;;;;4.72;2.50;;;12.10;99.90;;;;;;5076347;27;20052;-68
2023/08/28 03:11:09;;;;;;;5.35;2.58;;;12.00;99.90;;;;;;5132726;27;20047;-67
2023/08/28 03:13:36;;;;;;;13.13;3.45;;;12.00;99.90;;;;;;5114086;27;20394;-66
2023/08/28 03:16:03;;;;;;;5.88;2.70;;;12.00;99.90;;;;;;5113938;27;20051;-66
2023/08/28 03:18:30;;;;;;;7.82;3.00;;;12.00;99.90;;;;;;5132251;27;20483;-67
2023/08/28 03:20:57;;;;;;;10.30;3.25;;;11.90;99.90;;;;;;5113330;27;20547;-66
2023/08/28 03:23:24;;;;;;;4.07;2.70;;;12.00;99.90;;;;;;5131815;27;20502;-66
2023/08/28 03:25:52;;;;;;;4.32;2.72;;;12.00;99.90;;;;;;5113989;27;20103;-67
2023/08/28 03:28:19;;;;;;;10.23;2.65;;;12.00;99.90;;;;;;5131696;27;20403;-66
2023/08/28 03:30:46;;;;;;;4.53;2.58;;;12.00;99.90;;;;;;5131884;27;20499;-66
2023/08/28 03:33:13;;;;;;;6.03;2.65;;;12.00;99.90;;;;;;5132139;27;20100;-68
2023/08/28 03:35:40;;;;;;;6.93;3.03;;;12.00;99.90;;;;;;5112999;28;20061;-66
2023/08/28 03:38:07;;;;;;;6.00;3.17;;;12.00;99.90;;;;;;5131997;27;20051;-67
2023/08/28 03:40:36;;;;;;;6.68;3.22;;;12.00;99.90;;;;;;5114051;28;20407;-66
2023/08/28 03:43:04;;;;;;;4.40;3.20;;;12.00;99.90;;;;;;5131493;27;20375;-66
2023/08/28 03:45:31;;;;;;;6.50;3.30;;;12.00;99.90;;;;;;5131844;27;20043;-67
2023/08/28 03:47:58;;;;;;;3.78;2.63;;;12.00;99.90;;;;;;5131869;27;20104;-65
2023/08/28 03:50:28;;;;;;;6.18;3.17;;;12.00;99.90;;;;;;5131579;27;20051;-66
2023/08/28 03:52:56;;;;;;;5.32;3.28;;;12.00;99.90;;;;;;5132163;28;20055;-66
2023/08/28 03:55:23;;;;;;;5.57;3.22;;;12.00;99.90;;;;;;5113793;28;20047;-66
2023/08/28 03:57:50;;;;;;;6.72;3.60;;;11.90;99.90;;;;;;5112685;28;20047;-67
2023/08/28 04:00:18;;;;;;;5.85;3.50;;;11.90;99.90;;;;;;5113485;28;20487;-67
2023/08/28 04:02:46;;;;;;;6.70;3.22;;;11.80;99.90;;;;;;5092452;28;20047;-66
2023/08/28 04:05:13;;;;;;;6.53;3.10;;;11.80;99.90;;;;;;5093126;28;20055;-66
2023/08/28 04:07:40;;;;;;;4.97;3.17;;;11.80;99.90;;;;;;5093302;28;20040;-66
2023/08/28 04:10:08;;;;;;;4.55;3.30;;;11.80;99.90;;;;;;5109997;28;20395;-67
2023/08/28 04:12:35;;;;;;;6.60;3.53;;;11.80;99.90;;;;;;5093887;28;20487;-66
2023/08/28 04:15:03;;;;;;;5.60;3.92;;;11.70;99.90;;;;;;5093377;28;20392;-67
2023/08/28 04:17:31;;;;;;;6.40;2.83;;;11.70;99.90;;;;;;5092608;28;20095;-67
2023/08/28 04:19:58;;;;;;;5.35;2.97;;;11.70;99.90;;;;;;5093193;28;20074;-66
2023/08/28 04:22:25;;;;;;;4.40;3.05;;;11.70;99.90;;;;;;5110166;28;20051;-67
2023/08/28 04:24:53;;;;;;;6.05;3.35;;;11.70;99.90;;;;;;5093428;28;20062;-66
2023/08/28 04:27:20;;;;;;;7.53;3.35;;;11.60;99.90;;;;;;5094366;28;20047;-68
2023/08/28 04:29:47;;;;;;;4.97;3.38;;;11.60;99.90;;;;;;5112225;28;20555;-67
2023/08/28 04:32:13;;;;;;;5.07;3.22;;;11.60;99.90;;;;;;5093157;28;20054;-66
2023/08/28 04:34:42;;;;;;;6.53;3.10;;;11.60;99.90;;;;;;5112276;28;20048;-67
2023/08/28 04:37:09;;;;;;;4.95;3.38;;;11.60;99.90;;;;;;5112256;28;20047;-66
2023/08/28 04:39:36;;;;;;;7.57;3.20;;;11.60;99.90;;;;;;5111639;28;20445;-67
2023/08/28 04:42:02;;;;;;;7.15;3.60;;;11.60;99.90;;;;;;5113372;28;20054;-69
2023/08/28 04:44:29;;;;;;;4.78;3.53;;;11.60;99.90;;;;;;5131396;28;20079;-68
2023/08/28 04:46:58;;;;;;;7.82;3.45;;;11.70;99.90;;;;;;5112519;28;20043;-67
2023/08/28 04:49:25;;;;;;;4.53;3.42;;;11.70;99.90;;;;;;5131277;28;20059;-68
2023/08/28 04:51:53;;;;;;;6.30;3.53;;;11.80;99.90;;;;;;5113266;28;20092;-67
2023/08/28 04:54:20;;;;;;;7.53;3.80;;;11.80;99.90;;;;;;5094715;28;20109;-68
2023/08/28 04:56:48;;;;;;;4.93;3.60;;;11.90;99.90;;;;;;5111669;28;20051;-68
2023/08/28 04:59:15;;;;;;;5.78;3.60;;;11.90;99.90;;;;;;5105410;28;20131;-67
2023/08/28 05:01:42;;;;;;;6.05;3.00;;;11.90;99.90;;;;;;5092621;28;20538;-67
2023/08/28 05:04:09;;;;;;;5.35;3.28;;;12.00;99.90;;;;;;5113467;27;20066;-67
2023/08/28 05:06:36;;;;;;;9.00;3.10;;;12.00;99.90;;;;;;5091531;28;20039;-66
2023/08/28 05:09:04;;;;;;;4.00;3.10;;;12.10;99.90;;;;;;5093955;28;20051;-68
2023/08/28 05:11:31;;;;;;;5.32;3.20;;;12.00;99.90;;;;;;5092616;28;20171;-67
2023/08/28 05:13:58;;;;;;;4.63;2.95;;;12.00;99.90;;;;;;5101617;27;20299;-68
2023/08/28 05:16:25;;;;;;;6.32;3.15;;;12.00;99.90;;;;;;5093405;28;20519;-68
2023/08/28 05:18:52;;;;;;;7.30;3.65;;;12.00;99.90;;;;;;5102942;28;20048;-67
2023/08/28 05:21:19;;;;;;;5.43;3.33;;;12.10;99.90;;;;;;5109970;27;20597;-66
2023/08/28 05:23:46;;;;;;;5.40;3.40;;;12.20;99.90;;;;;;5092596;28;20051;-65
2023/08/28 05:26:14;;;;;;;5.55;3.30;;;12.20;99.90;;;;;;5090572;27;20395;-66
2023/08/28 05:28:41;;;;;;;5.63;3.78;;;12.30;99.90;;;;;;5104861;27;20051;-68
2023/08/28 05:31:08;;;;;;;7.18;3.33;;;12.30;99.90;;;;;;5093756;28;20051;-66
2023/08/28 05:33:36;;;;;;;4.88;3.53;;;12.30;99.90;;;;;;5103467;27;20044;-66
2023/08/28 05:36:03;;;;;;;8.65;3.60;;;12.30;99.90;;;;;;5092890;28;20139;-66
2023/08/28 05:38:30;;;;;;;6.57;3.38;;;12.30;99.90;;;;;;5092688;27;20050;-68
2023/08/28 05:40:57;;;;;;;5.07;3.10;;;12.40;99.90;;;;;;5095247;28;20093;-66
2023/08/28 05:43:26;;;;;;;6.65;3.47;;;12.50;99.90;;;;;;5093812;28;20055;-67
2023/08/28 05:45:53;;;;;;;5.60;3.50;;;12.40;99.90;;;;;;5093974;28;20055;-66
2023/08/28 05:48:20;;;;;;;7.80;3.88;;;12.60;99.90;;;;;;5094096;28;20051;-68
2023/08/28 05:50:49;;;;;;;6.15;3.45;;;12.60;99.90;;;;;;5091419;28;20058;-66
2023/08/28 05:53:16;;;;;;;6.03;3.67;;;12.70;99.90;;;;;;5108405;27;20077;-67
2023/08/28 05:55:43;;;;;;;4.93;3.60;;;12.80;99.90;;;;;;5095704;28;20297;-66
2023/08/28 05:58:10;;;;;;;4.40;3.30;;;12.80;99.90;;;;;;5120504;27;20058;-67
2023/08/28 06:00:38;;;;;;;4.85;3.47;;;12.90;99.90;;;;;;5092923;28;20495;-67
2023/08/28 06:03:06;;;;;;;6.45;3.70;;;13.00;99.90;;;;;;5093216;28;20070;-67
2023/08/28 06:05:33;;;;;;;4.50;3.40;;;13.10;99.90;;;;;;5092220;28;20087;-67
2023/08/28 06:08:00;;;;;;;6.45;3.50;;;13.20;99.90;;;;;;5110921;27;20052;-68
2023/08/28 06:10:29;;;;;;;7.70;3.10;;;13.30;99.90;;;;;;5098162;27;20051;-68
2023/08/28 06:12:57;;;;;;;5.68;3.30;;;13.50;99.90;;;;;;5092233;28;20047;-66
2023/08/28 06:15:25;;;;;;;5.93;3.03;;;13.60;99.90;;;;;;5094262;28;20086;-67
2023/08/28 06:17:54;;;;;;;6.40;3.15;;;13.70;99.90;;;;;;5108668;28;20043;-66
2023/08/28 06:20:22;;;;;;;6.03;2.75;;;13.90;99.90;;;;;;5103430;27;20431;-67
2023/08/28 06:22:49;;;;;;;6.90;2.88;;;14.20;99.90;;;;;;5093101;28;20048;-67
2023/08/28 06:25:16;;;;;;;8.07;2.42;;;14.90;99.90;;;;;;5092279;27;20414;-66
2023/08/28 06:27:43;;;;;;;3.88;2.28;;;15.70;99.90;;;;;;5110193;27;20452;-66
2023/08/28 06:30:11;;;;;;;4.22;1.77;;;16.50;99.90;;;;;;5104829;27;20044;-66
2023/08/28 06:32:38;;;;;;;3.85;1.98;;;17.30;99.90;;;;;;5110926;27;20380;-67
2023/08/28 06:35:07;;;;;;;6.45;1.85;;;18.00;99.90;;;;;;5092652;28;20044;-67
2023/08/28 06:37:34;;;;;;;4.87;1.67;;;18.60;99.90;;;;;;5094023;28;20171;-66
2023/08/28 06:40:03;;;;;;;4.93;1.52;;;19.10;99.90;;;;;;5101927;27;20059;-66
2023/08/28 06:42:30;;;;;;;2.30;1.25;;;19.60;99.90;;;;;;5115283;27;20057;-66
2023/08/28 06:44:57;;;;;;;4.10;1.50;;;20.00;99.90;;;;;;5090086;28;20040;-67
2023/08/28 06:47:24;;;;;;;2.97;1.40;;;20.40;99.90;;;;;;5105404;27;21268;-66
2023/08/28 06:49:51;;;;;;;4.95;1.23;;;20.90;99.90;;;;;;5104024;27;20082;-67
2023/08/28 06:52:19;;;;;;;6.38;1.30;;;21.00;99.90;;;;;;5092713;27;20883;-66
2023/08/28 06:54:46;;;;;;;2.53;1.30;;;21.60;99.90;;;;;;5106391;28;20048;-67
2023/08/28 06:57:13;;;;;;;4.32;1.10;;;21.90;99.90;;;;;;5102151;27;20052;-67
2023/08/28 06:59:40;;;;;;;2.78;1.42;;;22.40;99.90;;;;;;5110171;27;20052;-67
2023/08/28 07:02:07;;;;;;;2.67;1.00;;;22.60;99.90;;;;;;5104862;27;20101;-67
2023/08/28 07:04:34;;;;;;;3.30;1.15;;;22.90;99.90;;;;;;5086241;28;20044;-67
2023/08/28 07:07:00;;;;;;;1.80;0.98;;;23.50;99.90;;;;;;5093765;28;20054;-68
2023/08/28 07:09:29;;;;;;;3.30;1.20;;;23.40;99.90;;;;;;5091680;28;20101;-68
2023/08/28 07:11:56;;;;;;;4.13;1.23;;;23.60;99.90;;;;;;5087476;28;20392;-68
2023/08/28 07:14:22;;;;;;;2.13;1.00;;;23.90;99.90;;;;;;5092269;28;20043;-67
2023/08/28 07:16:49;;;;;;;4.28;1.35;;;24.20;99.90;;;;;;5100478;28;20062;-67
2023/08/28 07:19:16;;;;;;;1.65;0.90;;;24.70;99.90;;;;;;5095393;27;20047;-67
2023/08/28 07:21:43;;;;;;;3.60;1.05;;;24.60;99.90;;;;;;5079848;27;20071;-67
2023/08/28 07:24:10;;;;;;;3.85;1.08;;;24.30;99.90;;;;;;5077354;28;20577;-67
2023/08/28 07:26:38;;;;;;;2.80;1.02;;;24.60;99.90;;;;;;5086647;27;20418;-67
2023/08/28 07:29:05;;;;;;;2.28;1.13;;;24.60;99.90;;;;;;5113414;27;20055;-67
2023/08/28 07:31:32;;;;;;;2.75;1.20;;;24.80;99.90;;;;;;5097275;28;20454;-67
2023/08/28 07:34:00;;;;;;;2.83;1.02;;;25.40;99.90;;;;;;5093366;27;20533;-67
2023/08/28 07:36:27;;;;;;;3.28;0.80;;;26.00;99.90;;;;;;5099560;28;20051;-68
2023/08/28 07:38:53;;;;;;;2.88;1.10;;;26.20;99.90;;;;;;5075847;28;20074;-67
2023/08/28 07:41:20;;;;;;;2.47;0.90;;;26.30;99.90;;;;;;5076579;28;20048;-68
2023/08/28 07:43:49;;;;;;;5.40;1.17;;;26.60;99.90;;;;;;5075823;28;20055;-68
2023/08/28 07:46:16;;;;;;;2.60;0.95;;;26.90;99.20;;;;;;5093467;28;20047;-68
2023/08/28 07:48:43;;;;;;;2.67;0.98;;;26.70;99.40;;;;;;5074742;28;20043;-68
2023/08/28 07:51:10;;;;;;;5.80;1.10;;;26.50;99.20;;;;;;5093311;28;20052;-68
2023/08/28 07:53:38;;;;;;;4.28;1.40;;;25.90;98.50;;;;;;5100144;28;20085;-68
2023/08/28 07:56:05;;;;;;;3.25;1.30;;;25.60;99.90;;;;;;5093265;28;20082;-68
2023/08/28 07:58:33;;;;;;;2.60;0.90;;;26.00;99.90;;;;;;5093834;28;20047;-67
2023/08/28 08:01:02;;;;;;;3.38;1.10;;;25.90;99.70;;;;;;5106898;28;20097;-67
2023/08/28 08:03:29;;;;;;;2.63;0.98;;;26.30;99.40;;;;;;5075182;28;20058;-67
2023/08/28 08:05:56;;;;;;;3.13;1.20;;;26.30;99.00;;;;;;5098821;28;20075;-67
2023/08/28 08:08:23;;;;;;;3.53;1.40;;;26.40;98.80;;;;;;5092923;28;20107;-67
2023/08/28 08:10:50;;;;;;;2.22;1.10;;;27.00;98.60;;;;;;5086037;28;20473;-67
2023/08/28 08:13:18;;;;;;;3.17;1.00;;;27.10;98.40;;;;;;5093082;28;20101;-67
2023/08/28 08:15:45;;;;;;;2.78;1.10;;;26.80;98.10;;;;;;5093827;28;20052;-67
2023/08/28 08:18:13;;;;;;;3.17;1.13;;;26.20;98.30;;;;;;5092311;28;20040;-67
2023/08/28 08:20:40;;;;;;;3.28;1.00;;;26.20;98.80;;;;;;5093236;28;20509;-68
2023/08/28 08:23:07;;;;;;;4.88;0.90;;;25.50;99.60;;;;;;5093827;28;20043;-68
2023/08/28 08:25:34;;;;;;;4.00;1.15;;;24.60;99.90;;;;;;5111830;28;20039;-68
2023/08/28 08:28:02;;;;;;;1.88;0.93;;;24.70;99.90;;;;;;5089937;28;20036;-67
2023/08/28 08:30:29;;;;;;;3.28;1.30;;;24.40;99.90;;;;;;5088543;28;20069;-69
2023/08/28 08:32:56;;;;;;;3.80;1.15;;;24.40;99.90;;;;;;5106933;28;20039;-67
2023/08/28 08:35:25;;;;;;;4.15;1.27;;;24.60;99.90;;;;;;5089341;27;20399;-68
2023/08/28 08:37:53;;;;;;;4.60;1.10;;;25.30;99.90;;;;;;5106856;27;20478;-67
2023/08/28 08:40:25;;;;;;;4.97;1.40;;;25.40;98.30;;;;;;5096175;28;20059;-67
2023/08/28 08:42:53;;;;;;;3.35;1.00;;;25.20;97.30;;;;;;5101910;27;20135;-68
2023/08/28 08:45:21;;;;;;;2.28;1.00;;;25.30;97.70;;;;;;5105469;27;20096;-68
2023/08/28 08:47:50;;;;;;;1.77;0.80;;;24.90;98.10;;;;;;5115611;28;20042;-67
2023/08/28 08:50:19;;;;;;;2.80;1.15;;;24.30;98.80;;;;;;5079469;27;20051;-68
2023/08/28 08:52:49;;;;;;;2.03;0.63;;;25.00;98.30;;;;;;5096889;28;20074;-67
2023/08/28 08:55:25;;;;;;;3.95;0.77;;;25.20;98.30;;;;;;5115524;28;20075;-68
2023/08/28 08:57:55;;;;;;;2.50;0.90;;;26.10;97.70;;;;;;5130901;27;20134;-68
2023/08/28 09:00:23;;;;;;;2.42;0.77;;;27.10;96.30;;;;;;5134347;27;20071;-68
2023/08/28 09:02:51;;;;;;;2.38;1.00;;;27.70;94.80;;;;;;5134764;27;20043;-69
2023/08/28 09:05:20;;;;;;;3.67;1.13;;;28.10;94.20;;;;;;5116448;27;20066;-68
2023/08/28 09:07:50;;;;;;;4.18;0.98;;;28.30;93.60;;;;;;5124141;27;20036;-69
2023/08/28 09:10:17;;;;;;;2.88;0.70;;;28.70;93.20;;;;;;5095317;28;20487;-69
2023/08/28 09:12:46;;;;;;;3.30;1.00;;;28.80;93.70;;;;;;5090238;28;20052;-67
2023/08/28 09:15:14;;;;;;;2.67;0.93;;;27.60;93.50;;;;;;5089216;28;20048;-68
2023/08/28 09:17:41;;;;;;;3.97;1.20;;;27.00;95.50;;;;;;5093482;28;20047;-68
2023/08/28 09:20:13;;;;;;;3.10;0.90;;;25.90;97.50;;;;;;5090033;28;20062;-69
2023/08/28 09:22:46;;;;;;;2.97;1.10;;;25.00;98.50;;;;;;5111894;28;20040;-68
2023/08/28 09:25:14;;;;;;;2.50;0.80;;;24.20;99.90;;;;;;5111819;27;20464;-69
2023/08/28 09:27:43;;;;;;;2.30;0.80;;;23.70;99.90;;;;;;5095740;28;20091;-68
2023/08/28 09:30:11;;;;;;;2.08;0.80;;;23.20;99.90;;;;;;5109032;27;20126;-68
2023/08/28 09:32:45;;;;;;;4.75;0.90;;;22.90;99.90;;;;;;5094298;28;20039;-68
2023/08/28 09:35:15;;;;;;;4.32;0.98;;;22.70;99.90;;;;;;5102864;28;20044;-69
2023/08/28 09:37:42;;;;;;;2.92;0.90;;;23.20;99.90;;;;;;5102813;27;20515;-68
2023/08/28 09:40:10;;;;;;;4.80;0.98;;;24.30;99.90;;;;;;5093815;28;20059;-68
2023/08/28 09:42:39;;;;;;;2.10;0.80;;;24.90;99.90;;;;;;5091012;28;20148;-68
2023/08/28 09:45:08;;;;;;;2.78;0.90;;;24.70;99.90;;;;;;5101366;28;20055;-68
2023/08/28 09:47:35;;;;;;;;;;;23.50;99.90;;;;;;5106758;27;20044;-69
2023/08/28 09:50:04;;;;;;;2.97;0.90;;;22.40;99.90;;;;;;5090471;28;20619;-69
2023/08/28 09:52:31;;;;;;;2.33;0.70;;;21.90;99.90;;;;;;5093736;27;20051;-68
2023/08/28 09:55:04;;;;;;;2.05;0.80;;;21.60;99.90;;;;;;5090317;28;20112;-68
2023/08/28 09:57:31;;;;;;;1.95;0.90;;;21.20;99.90;;;;;;5088155;28;20104;-69
2023/08/28 09:59:59;;;;;;;2.35;0.90;;;20.70;99.90;;;;;;5109622;27;20048;-68
2023/08/28 10:02:27;;;;;;;2.97;0.82;;;20.30;99.90;;;;;;5107391;27;20093;-68
2023/08/28 10:04:54;;;;;;;1.83;0.68;;;19.90;99.90;;;;;;5093327;28;20093;-68
2023/08/28 10:07:23;;;;;;;2.45;1.00;;;19.60;99.90;;;;;;5092570;28;20452;-67
2023/08/28 10:09:52;;;;;;;1.92;1.08;;;19.40;99.90;;;;;;5110050;28;20039;-68
2023/08/28 10:12:23;;;;;;;5.50;1.15;;;19.30;99.90;;;;;;5101919;27;20547;-67
2023/08/28 10:14:54;;;;;;;3.38;0.95;;;19.10;99.90;;;;;;5093736;28;20093;-66
2023/08/28 10:17:26;;;;;;;2.88;1.45;;;19.00;99.90;;;;;;5088226;28;20548;-68
2023/08/28 10:19:58;;;;;;;2.78;1.20;;;18.90;99.90;;;;;;5112107;27;20467;-68
2023/08/28 10:22:26;;;;;;;5.93;1.48;;;18.80;99.90;;;;;;5089414;28;20047;-68
2023/08/28 10:24:56;;;;;;;4.30;1.27;;;19.00;99.90;;;;;;5093802;28;20055;-69
2023/08/28 10:27:23;;;;;;;5.57;1.50;;;18.80;99.90;;;;;;5096339;28;20130;-67
2023/08/28 10:29:50;;;;;;;2.72;1.13;;;18.80;99.90;;;;;;5110089;28;20042;-68
2023/08/28 10:32:19;;;;;;;3.35;1.40;;;19.00;99.90;;;;;;5110295;27;20047;-68
2023/08/28 10:34:48;;;;;;;3.00;1.20;;;19.20;99.90;;;;;;5116755;27;20051;-68
2023/08/28 10:37:16;;;;;;;3.25;1.10;;;19.40;99.90;;;;;;5091190;28;20044;-68
2023/08/28 10:39:44;;;;;;;4.70;1.00;;;19.60;99.90;;;;;;5091907;28;20099;-68
2023/08/28 10:42:15;;;;;;;2.40;0.90;;;19.90;99.90;;;;;;5104303;27;20120;-68
2023/08/28 10:44:43;;;;;;;2.67;1.30;;;19.90;99.90;;;;;;5093922;28;20441;-67
2023/08/28 10:47:14;;;;;;;4.43;1.10;;;20.00;99.90;;;;;;5092604;28;20112;-67
2023/08/28 10:49:41;;;;;;;4.25;0.98;;;20.20;99.90;;;;;;5107422;27;20052;-68
2023/08/28 10:52:11;;;;;;;2.40;0.93;;;20.30;99.90;;;;;;5091689;28;20054;-67
2023/08/28 10:54:39;;;;;;;3.37;0.90;;;20.30;99.90;;;;;;5108452;28;20051;-67
2023/08/28 10:57:10;;;;;;;3.67;1.13;;;20.50;99.90;;;;;;5108113;27;20286;-67
2023/08/28 10:59:44;;;;;;;4.30;1.08;;;20.70;99.90;;;;;;5089289;28;20044;-67
2023/08/28 11:02:11;;;;;;;2.58;1.02;;;21.00;99.90;;;;;;5104921;27;20052;-68
2023/08/28 11:04:39;;;;;;;3.47;1.08;;;21.50;99.90;;;;;;5100619;27;20054;-67
2023/08/28 11:07:08;;;;;;;4.70;1.02;;;22.00;99.90;;;;;;5092256;28;20047;-67
2023/08/28 11:09:40;;;;;;;2.47;1.13;;;23.20;99.90;;;;;;5109354;28;20035;-66
2023/08/28 11:12:27;;;;;;;3.03;1.02;;;24.40;99.90;;;;;;5101262;27;20091;-68
2023/08/28 11:15:03;;;;;;;2.30;0.90;;;24.20;99.90;;;;;;5090080;28;20101;-68
2023/08/28 11:17:34;;;;;;;2.35;1.00;;;24.20;99.90;;;;;;5091819;28;20047;-68
2023/08/28 11:20:05;;;;;;;3.10;1.10;;;23.70;99.90;;;;;;5090863;28;20134;-68
2023/08/28 11:22:32;;;;;;;2.75;0.98;;;23.10;99.90;;;;;;5102204;28;20058;-67
2023/08/28 11:25:04;;;;;;;2.05;0.82;;;22.50;99.90;;;;;;5091923;28;20530;-67
2023/08/28 11:27:35;;;;;;;1.98;1.00;;;21.90;99.90;;;;;;5100106;28;20047;-68
2023/08/28 11:30:06;;;;;;;1.83;0.80;;;21.40;99.90;;;;;;5093535;28;20047;-67
2023/08/28 11:32:34;;;;;;;3.92;1.13;;;21.00;99.90;;;;;;5090564;28;20055;-67
2023/08/28 11:35:04;;;;;;;3.28;0.90;;;20.80;99.90;;;;;;5091168;28;20062;-67
2023/08/28 11:37:36;;;;;;;2.67;1.25;;;20.60;99.90;;;;;;5107336;28;20051;-68
2023/08/28 11:40:07;;;;;;;2.65;1.20;;;20.70;99.90;;;;;;5091086;28;20058;-68
2023/08/28 11:42:34;;;;;;;2.95;1.27;;;20.80;99.90;;;;;;5091587;28;20417;-68
2023/08/28 11:45:01;;;;;;;2.28;0.90;;;20.90;99.90;;;;;;5098113;28;20414;-68
2023/08/28 11:47:30;;;;;;;4.18;1.23;;;21.00;99.90;;;;;;5114847;27;20051;-67
2023/08/28 11:49:59;;;;;;;2.15;1.05;;;21.10;99.90;;;;;;5077085;28;20043;-67
2023/08/28 11:52:26;;;;;;;2.30;1.00;;;21.20;99.90;;;;;;5100778;28;20052;-67
2023/08/28 11:55:00;;;;;;;2.67;0.90;;;21.30;99.90;;;;;;5090811;28;20055;-68
2023/08/28 11:57:30;;;;;;;2.80;1.05;;;21.40;99.90;;;;;;5104200;28;20503;-67
2023/08/28 11:59:59;;;;;;;2.40;0.93;;;21.50;99.90;;;;;;5112715;28;20046;-68
2023/08/28 12:02:27;;;;;;;3.75;1.05;;;21.80;99.90;;;;;;5106794;28;20430;-68
2023/08/28 12:04:54;;;;;;;4.03;0.88;;;22.00;99.90;;;;;;5102145;28;20094;-68
2023/08/28 12:07:22;;;;;;;2.38;1.20;;;22.30;99.90;;;;;;5092322;28;20075;-68
2023/08/28 12:09:50;;;;;;;3.00;1.05;;;22.60;99.90;;;;;;5087784;28;20047;-68
2023/08/28 12:12:18;;;;;;;1.85;1.00;;;23.00;99.90;;;;;;5112696;28;20336;-68
2023/08/28 12:14:49;;;;;;;2.78;1.08;;;23.70;99.90;;;;;;5106927;28;20063;-67
2023/08/28 12:17:17;;;;;;;1.50;0.70;;;24.20;99.90;;;;;;5095552;28;20051;-67
2023/08/28 12:19:45;;;;;;;3.10;1.00;;;24.20;99.90;;;;;;5090586;28;20074;-67
2023/08/28 12:22:14;;;;;;;2.53;1.33;;;24.10;99.90;;;;;;5090964;28;20048;-67
2023/08/28 12:24:42;;;;;;;1.80;0.63;;;23.90;99.90;;;;;;5088992;28;20062;-67
2023/08/28 12:27:10;;;;;;;1.73;0.73;;;23.60;99.90;;;;;;5106969;27;20496;-67
2023/08/28 12:29:37;;;;;;;1.85;0.70;;;23.40;99.90;;;;;;5106897;28;20044;-67
2023/08/28 12:32:07;;;;;;;2.17;0.70;;;23.10;99.90;;;;;;5119020;27;20058;-67
2023/08/28 12:34:37;;;;;;;3.33;1.00;;;23.10;99.90;;;;;;5093687;28;20128;-67
2023/08/28 12:37:05;;;;;;;3.50;1.10;;;22.90;99.90;;;;;;5077206;27;20055;-67
2023/08/28 12:39:33;;;;;;;2.33;0.98;;;22.80;99.90;;;;;;5080409;28;20514;-67
2023/08/28 12:42:00;;;;;;;1.92;0.70;;;22.80;99.90;;;;;;5096849;27;20407;-68
2023/08/28 12:44:28;;;;;;;1.67;0.90;;;22.70;99.90;;;;;;5096168;27;20105;-67
2023/08/28 12:46:55;;;;;;;1.40;0.70;;;22.80;99.90;;;;;;5078832;27;20048;-67
2023/08/28 12:49:24;;;;;;;3.45;0.80;;;23.00;99.90;;;;;;5096783;27;20462;-67
2023/08/28 12:51:51;;;;;;;1.83;0.80;;;23.60;99.90;;;;;;5112969;28;20043;-68